Time;durP1;ratioP1;P1;durP2;ratioP2;P2;SDS_P1;SDS_P2;PMS_P1;PMS_P2;Temp;Humidity;BMP_temperature;BMP_pressure;BME280_temperature;BME280_humidity;BME280_pressure;Samples;Min_cycle;Max_cycle;Signal;HPM_P1;HPM_P2
2021/12/21 00:02:23;;;;;;;;;28.25;23.25;;;;;5.94;56.87;102285.25;5092579;27;50643;-62
2021/12/21 00:04:48;;;;;;;;;24.75;22.25;;;;;6.00;56.89;102290.88;5092744;27;49638;-62
2021/12/21 00:07:13;;;;;;;;;28.00;22.25;;;;;6.04;57.23;102302.38;5092652;27;49545;-65
2021/12/21 00:09:39;;;;;;;;;23.25;20.50;;;;;5.79;57.07;102250.38;5092945;27;49873;-62
2021/12/21 00:12:04;;;;;;;;;20.75;19.75;;;;;5.97;56.98;102292.34;5092262;27;50223;-64
2021/12/21 00:14:42;;;;;;;;;27.75;23.25;;;;;5.62;56.93;102232.75;5092564;27;49924;-62
2021/12/21 00:17:59;;;;;;;;;31.25;26.00;;;;;5.63;56.90;102243.28;5092188;27;50063;-62
2021/12/21 00:20:10;;;;;;;;;38.00;27.75;;;;;5.83;57.10;102285.34;5084875;27;49919;-63
2021/12/21 00:25:20;;;;;;;;;27.00;20.75;;;;;4.97;57.02;102140.84;5092425;27;49757;-61
2021/12/21 00:27:47;;;;;;;;;28.75;25.75;;;;;5.58;57.38;102270.72;5092137;27;49897;-67
2021/12/21 00:30:14;;;;;;;;;23.50;22.50;;;;;5.58;57.54;102269.81;5092661;27;49822;-66
2021/12/21 00:32:39;;;;;;;;;26.75;26.00;;;;;5.49;57.21;102259.69;5092141;27;49828;-62
2021/12/21 00:35:05;;;;;;;;;26.00;22.75;;;;;5.62;57.21;102282.25;5092076;27;49782;-64
2021/12/21 00:37:31;;;;;;;;;30.25;26.75;;;;;5.44;57.53;102250.69;5092104;27;50081;-62
2021/12/21 00:39:56;;;;;;;;;26.75;25.00;;;;;5.31;57.81;102238.59;5092391;27;49728;-63
2021/12/21 00:42:22;;;;;;;;;31.75;26.50;;;;;5.54;57.88;102281.75;5091624;27;50644;-62
2021/12/21 00:44:47;;;;;;;;;27.00;25.75;;;;;5.43;58.18;102280.16;5092100;27;50009;-62
2021/12/21 00:47:17;;;;;;;;;32.75;22.50;;;;;5.55;57.79;102286.16;5092162;27;49982;-65
2021/12/21 00:49:47;;;;;;;;;39.25;30.00;;;;;5.55;57.58;102280.03;5092376;27;49723;-62
2021/12/21 00:52:14;;;;;;;;;24.75;16.75;;;;;5.51;57.76;102285.88;5091720;27;50924;-67
2021/12/21 00:54:40;;;;;;;;;35.00;26.50;;;;;5.46;57.85;102276.03;5092034;27;49958;-62
2021/12/21 00:57:06;;;;;;;;;22.50;20.25;;;;;5.43;57.53;102272.34;5091672;27;49992;-62
2021/12/21 00:59:33;;;;;;;;;23.00;21.25;;;;;5.37;57.65;102266.72;5091965;27;50008;-61
2021/12/21 01:01:59;;;;;;;;;25.00;22.00;;;;;5.15;57.42;102233.16;5091525;27;50470;-65
2021/12/21 01:04:31;;;;;;;;;27.00;24.75;;;;;5.26;58.36;102266.03;5091622;27;49821;-72
2021/12/21 01:07:05;;;;;;;;;21.50;19.00;;;;;5.31;58.16;102258.53;5086186;27;49967;-63
2021/12/21 01:12:10;;;;;;;;;25.25;21.50;;;;;5.14;57.82;102245.28;5091429;27;49723;-63
2021/12/21 01:17:21;;;;;;;;;27.75;21.75;;;;;5.22;58.07;102265.72;5091586;27;49948;-62
2021/12/21 01:19:59;;;;;;;;;29.50;23.75;;;;;4.98;58.58;102224.22;5091580;27;49709;-62
2021/12/21 01:25:26;;;;;;;;;32.75;23.25;;;;;5.11;57.99;102239.84;5086514;27;49864;-62
2021/12/21 01:28:07;;;;;;;;;22.50;19.50;;;;;5.22;57.98;102257.91;5091246;27;50028;-62
2021/12/21 01:33:41;;;;;;;;;17.75;17.25;;;;;5.23;58.00;102254.50;5091124;27;50620;-62
2021/12/21 01:35:50;;;;;;;;;18.75;18.50;;;;;5.16;58.64;102255.78;5090524;27;49680;-61
2021/12/21 01:38:29;;;;;;;;;26.25;23.00;;;;;5.20;58.03;102256.88;5091406;27;50038;-64
2021/12/21 01:41:12;;;;;;;;;26.25;26.25;;;;;5.20;57.85;102256.88;5091446;27;49770;-64
2021/12/21 01:43:47;;;;;;;;;21.75;21.75;;;;;4.88;58.16;102207.09;5090910;27;49938;-61
2021/12/21 01:51:40;;;;;;;;;20.25;18.75;;;;;4.69;58.67;102182.38;5091163;27;49739;-62
2021/12/21 01:54:06;;;;;;;;;22.75;20.75;;;;;4.93;58.46;102211.75;5090836;27;49750;-62
2021/12/21 01:56:32;;;;;;;;;18.25;15.25;;;;;5.16;58.34;102261.00;5090916;27;49886;-63
2021/12/21 01:58:57;;;;;;;;;20.25;18.25;;;;;5.09;58.73;102245.78;5090737;27;49929;-61
2021/12/21 02:01:25;;;;;;;;;25.00;18.00;;;;;5.14;58.84;102255.69;5091091;27;49736;-62
2021/12/21 02:03:51;;;;;;;;;18.00;15.25;;;;;4.89;58.53;102213.22;5090662;27;50820;-61
2021/12/21 02:06:22;;;;;;;;;22.50;20.25;;;;;5.11;58.71;102252.88;5090843;27;49643;-61
2021/12/21 02:08:48;;;;;;;;;22.50;21.25;;;;;5.06;59.18;102240.38;5090748;27;49778;-61
2021/12/21 02:11:14;;;;;;;;;18.25;17.00;;;;;5.11;58.84;102250.25;5090967;27;49940;-63
2021/12/21 02:13:44;;;;;;;;;25.75;19.25;;;;;4.97;59.39;102222.44;5090323;27;49918;-63
2021/12/21 02:16:10;;;;;;;;;23.00;17.50;;;;;4.58;58.77;102161.75;5090580;27;49906;-62
2021/12/21 02:19:25;;;;;;;;;21.25;18.00;;;;;4.98;59.57;102229.44;5090804;27;50059;-62
2021/12/21 02:21:49;;;;;;;;;15.50;15.50;;;;;5.04;59.07;102241.97;5087546;27;50075;-64
2021/12/21 02:24:18;;;;;;;;;19.25;17.25;;;;;5.02;59.13;102243.53;5084417;27;50700;-66
2021/12/21 02:26:54;;;;;;;;;21.25;18.00;;;;;5.00;59.97;102246.06;5090665;27;49789;-71
2021/12/21 02:29:28;;;;;;;;;20.00;17.50;;;;;4.87;59.52;102220.03;5090508;27;49863;-62
2021/12/21 02:31:54;;;;;;;;;19.75;18.00;;;;;4.96;60.21;102233.66;5090668;27;49983;-65
2021/12/21 02:34:22;;;;;;;;;21.50;18.75;;;;;4.86;60.17;102220.81;5088866;27;51711;-62
2021/12/21 02:36:50;;;;;;;;;20.50;15.50;;;;;4.93;60.02;102229.97;5090287;27;49608;-61
2021/12/21 02:39:15;;;;;;;;;30.00;21.75;;;;;4.91;59.90;102227.22;5090390;27;49918;-61
2021/12/21 02:41:42;;;;;;;;;24.75;21.00;;;;;4.88;60.10;102221.81;5092887;27;49883;-62
2021/12/21 02:44:08;;;;;;;;;25.00;22.00;;;;;4.86;60.29;102220.81;5093724;27;50705;-62
2021/12/21 02:46:34;;;;;;;;;25.00;20.00;;;;;4.85;59.93;102213.81;5093892;27;49904;-62
2021/12/21 02:49:00;;;;;;;;;22.75;22.25;;;;;4.85;60.19;102216.44;5094008;27;49703;-61
2021/12/21 02:51:25;;;;;;;;;20.25;19.00;;;;;4.83;59.85;102215.44;5093894;27;49908;-62
2021/12/21 02:53:51;;;;;;;;;17.50;13.25;;;;;4.64;60.38;102176.88;5093719;27;50465;-61
2021/12/21 02:56:17;;;;;;;;;23.00;17.75;;;;;4.67;60.36;102181.38;5093965;27;49778;-62
2021/12/21 02:58:43;;;;;;;;;19.50;16.75;;;;;4.76;60.20;102208.91;5093600;27;50015;-62
2021/12/21 03:01:11;;;;;;;;;14.25;14.00;;;;;4.72;59.99;102203.38;5094215;27;49743;-60
2021/12/21 03:03:36;;;;;;;;;27.25;20.25;;;;;4.25;60.88;102121.38;5087068;27;49849;-61
2021/12/21 03:06:07;;;;;;;;;14.75;14.75;;;;;4.71;60.62;102202.47;5086699;27;49779;-61
2021/12/21 03:08:39;;;;;;;;;17.50;17.25;;;;;4.41;61.07;102144.09;5085878;27;49843;-61
2021/12/21 03:11:19;;;;;;;;;19.50;17.50;;;;;4.64;60.61;102192.47;5093938;27;49942;-61
2021/12/21 03:16:45;;;;;;;;;19.25;19.25;;;;;4.64;60.12;102200.28;5049907;28;49932;-61
2021/12/21 03:19:11;;;;;;;;;21.75;18.50;;;;;4.65;60.93;102199.47;5081365;27;49996;-63
2021/12/21 03:21:37;;;;;;;;;25.50;21.25;;;;;4.33;60.76;102142.66;5093632;27;49731;-62
2021/12/21 03:24:04;;;;;;;;;17.75;16.75;;;;;4.60;59.77;102199.16;5093139;27;50499;-62
2021/12/21 03:26:29;;;;;;;;;16.25;16.25;;;;;4.51;59.89;102195.03;5093277;27;49843;-61
2021/12/21 03:28:55;;;;;;;;;27.00;21.25;;;;;4.57;59.81;102203.25;5093056;27;50200;-62
2021/12/21 03:31:21;;;;;;;;;24.50;21.25;;;;;4.48;59.72;102207.84;5093446;27;49826;-62
2021/12/21 03:33:47;;;;;;;;;21.25;18.75;;;;;4.53;59.54;102209.03;5092923;27;50827;-62
2021/12/21 03:36:16;;;;;;;;;24.00;19.50;;;;;4.52;60.37;102207.22;5093100;27;49784;-61
2021/12/21 03:38:47;;;;;;;;;23.00;21.00;;;;;4.48;59.65;102200.94;5093038;27;49765;-62
2021/12/21 03:41:15;;;;;;;;;24.75;20.00;;;;;4.54;60.14;102205.66;5093404;27;50020;-62
2021/12/21 03:43:40;;;;;;;;;17.25;16.75;;;;;4.51;60.13;102205.44;5092340;27;49769;-64
2021/12/21 03:46:11;;;;;;;;;21.25;14.50;;;;;4.25;59.59;102175.97;5092946;27;49748;-61
2021/12/21 03:48:41;;;;;;;;;17.25;16.50;;;;;4.37;60.24;102201.91;5093102;27;49859;-61
2021/12/21 03:51:06;;;;;;;;;20.75;19.75;;;;;4.42;59.41;102210.00;5092009;27;50100;-62
2021/12/21 03:53:32;;;;;;;;;18.00;15.25;;;;;4.43;59.95;102212.69;5091665;27;50791;-61
2021/12/21 03:56:24;;;;;;;;;18.25;16.50;;;;;4.43;60.39;102209.19;5092808;27;49727;-61
2021/12/21 03:58:44;;;;;;;;;19.25;15.00;;;;;4.33;59.50;102197.28;5086105;27;49684;-62
2021/12/21 04:01:09;;;;;;;;;20.25;16.50;;;;;4.09;59.50;102164.41;5093020;27;49779;-63
2021/12/21 04:03:35;;;;;;;;;16.75;14.25;;;;;4.27;59.63;102195.16;5086069;27;49739;-62
2021/12/21 04:06:00;;;;;;;;;20.50;16.75;;;;;4.21;60.41;102188.63;5092688;27;49849;-62
2021/12/21 04:08:26;;;;;;;;;16.75;12.75;;;;;4.11;59.92;102160.22;5091315;27;49839;-66
2021/12/21 04:10:51;;;;;;;;;18.00;14.50;;;;;4.23;60.37;102190.53;5092947;27;50083;-62
2021/12/21 04:13:17;;;;;;;;;30.75;19.75;;;;;4.30;60.43;102197.97;5092335;27;49801;-62
2021/12/21 04:15:43;;;;;;;;;17.25;14.25;;;;;4.29;60.74;102198.78;5092570;27;50052;-64
2021/12/21 04:18:12;;;;;;;;;16.25;13.00;;;;;4.01;59.98;102151.78;5092517;27;49706;-63
2021/12/21 04:20:39;;;;;;;;;19.50;17.00;;;;;4.26;59.96;102201.16;5092831;27;49584;-62
2021/12/21 04:23:05;;;;;;;;;17.75;16.00;;;;;4.23;60.62;102195.72;5092169;27;49799;-67
2021/12/21 04:25:31;;;;;;;;;16.25;14.50;;;;;4.18;60.42;102185.84;5092615;27;50085;-62
2021/12/21 04:27:56;;;;;;;;;17.00;16.00;;;;;4.06;60.35;102172.91;5091035;27;49953;-63
2021/12/21 04:30:22;;;;;;;;;23.25;16.75;;;;;4.23;60.41;102189.63;5092557;27;49939;-63
2021/12/21 04:32:48;;;;;;;;;19.75;13.00;;;;;4.13;60.18;102184.59;5092239;27;50563;-62
2021/12/21 04:35:18;;;;;;;;;17.25;17.25;;;;;4.19;60.95;102190.22;5092170;27;49863;-64
2021/12/21 04:37:47;;;;;;;;;8.00;6.00;;;;;4.07;60.91;102179.00;5092051;27;49848;-63
2021/12/21 04:40:17;;;;;;;;;15.00;13.00;;;;;3.89;60.60;102150.94;5092374;27;49854;-62
2021/12/21 04:42:42;;;;;;;;;16.00;14.00;;;;;4.06;61.46;102185.00;5091772;27;49699;-63
2021/12/21 04:45:08;;;;;;;;;14.50;12.00;;;;;4.04;61.61;102187.47;5092136;27;49781;-63
2021/12/21 04:47:33;;;;;;;;;17.25;16.00;;;;;3.87;61.39;102152.53;5092233;27;49809;-64
2021/12/21 04:49:58;;;;;;;;;20.75;16.50;;;;;4.01;61.05;102179.47;5092150;27;49960;-62
2021/12/21 04:52:24;;;;;;;;;18.25;18.25;;;;;4.06;61.38;102198.88;5092031;27;49739;-67
2021/12/21 04:54:49;;;;;;;;;18.75;14.50;;;;;3.76;61.59;102135.25;5091746;27;49703;-62
2021/12/21 04:57:15;;;;;;;;;14.00;14.00;;;;;4.00;61.55;102186.34;5091826;27;49707;-61
2021/12/21 04:59:40;;;;;;;;;14.00;14.00;;;;;3.92;60.62;102179.72;5092130;27;49993;-61
2021/12/21 05:02:05;;;;;;;;;17.00;15.25;;;;;3.86;61.43;102179.31;5091689;27;49943;-62
2021/12/21 05:04:31;;;;;;;;;19.50;10.25;;;;;3.93;61.35;102186.72;5091616;27;50031;-62
2021/12/21 05:06:56;;;;;;;;;21.50;18.75;;;;;3.59;61.23;102131.50;5092011;27;50115;-63
2021/12/21 05:09:28;;;;;;;;;23.00;18.25;;;;;3.81;61.86;102185.84;5090482;27;49834;-62
2021/12/21 05:12:01;;;;;;;;;23.50;19.75;;;;;3.86;61.11;102187.09;5085229;27;49955;-64
2021/12/21 05:14:27;;;;;;;;;26.00;19.75;;;;;3.87;61.83;102185.41;5091752;27;49729;-62
2021/12/21 05:16:53;;;;;;;;;23.25;18.00;;;;;3.82;62.03;102187.66;5091762;27;50008;-63
2021/12/21 05:19:18;;;;;;;;;16.50;16.50;;;;;3.65;62.18;102167.38;5091716;27;49943;-62
2021/12/21 05:21:43;;;;;;;;;17.50;16.75;;;;;3.79;62.39;102187.44;5091489;27;49626;-62
2021/12/21 05:24:09;;;;;;;;;17.75;16.75;;;;;3.54;62.16;102139.75;5091615;27;49604;-64
2021/12/21 05:26:34;;;;;;;;;26.25;21.25;;;;;3.90;62.62;102196.00;5091533;27;49754;-63
2021/12/21 05:28:59;;;;;;;;;24.00;20.50;;;;;3.84;62.73;102185.16;5091226;27;49768;-61
2021/12/21 05:31:25;;;;;;;;;20.50;19.50;;;;;3.89;61.89;102199.41;5091204;27;50657;-62
2021/12/21 05:33:52;;;;;;;;;23.75;18.00;;;;;3.69;62.44;102169.41;5090879;27;49745;-63
2021/12/21 05:36:20;;;;;;;;;20.75;19.50;;;;;3.78;62.18;102189.94;5091282;27;49900;-63
2021/12/21 05:38:49;;;;;;;;;22.00;19.75;;;;;3.81;62.68;102195.34;5091501;27;49744;-62
2021/12/21 05:41:23;;;;;;;;;28.25;21.00;;;;;3.81;62.60;102201.44;5091293;27;50809;-63
2021/12/21 05:43:49;;;;;;;;;9.25;2.00;;;;;3.70;62.70;102182.50;5090999;27;49729;-61
2021/12/21 05:46:18;;;;;;;;;27.50;24.25;;;;;3.68;63.18;102178.00;5091194;27;50204;-62
2021/12/21 05:48:43;;;;;;;;;26.50;20.50;;;;;3.61;62.94;102171.47;5091325;27;50240;-62
2021/12/21 05:51:09;;;;;;;;;20.00;19.50;;;;;3.76;62.77;102195.00;5090935;27;49730;-68
2021/12/21 05:53:34;;;;;;;;;21.75;19.25;;;;;3.62;62.36;102182.75;5090973;27;49780;-63
2021/12/21 05:55:59;;;;;;;;;23.50;19.75;;;;;3.63;63.20;102180.25;5090992;27;49670;-61
2021/12/21 05:58:25;;;;;;;;;28.25;19.25;;;;;3.71;62.54;102199.00;5090911;27;49799;-63
2021/12/21 06:00:51;;;;;;;;;26.50;22.25;;;;;3.64;63.38;102186.34;5090686;27;50224;-62
2021/12/21 06:03:17;;;;;;;;;24.25;22.75;;;;;3.70;63.45;102200.69;5090899;27;50103;-62
2021/12/21 06:05:43;;;;;;;;;24.50;20.00;;;;;3.50;63.10;102175.00;5090923;27;50292;-62
2021/12/21 06:08:09;;;;;;;;;36.75;25.50;;;;;3.51;63.17;102170.69;5090959;27;49808;-62
2021/12/21 06:10:38;;;;;;;;;23.75;19.00;;;;;3.69;63.42;102211.88;5090564;27;51402;-63
2021/12/21 06:26:17;;;;;;;;;23.75;19.75;;;;;3.29;63.61;102163.06;5094333;27;49592;-62
2021/12/21 06:28:44;;;;;;;;;20.75;18.50;;;;;3.55;62.85;102211.66;5094325;27;50012;-63
2021/12/21 06:31:10;;;;;;;;;26.00;17.25;;;;;3.23;62.90;102158.34;5094052;27;50235;-63
2021/12/21 06:33:36;;;;;;;;;27.75;22.25;;;;;3.48;62.91;102212.94;5094109;27;49592;-62
2021/12/21 06:36:02;;;;;;;;;23.00;21.50;;;;;3.42;63.78;102210.78;5094181;27;49791;-63
2021/12/21 06:38:28;;;;;;;;;16.00;15.50;;;;;3.44;63.42;102214.38;5094040;27;49797;-62
2021/12/21 06:40:53;;;;;;;;;21.25;20.00;;;;;3.29;63.71;102187.34;5093853;27;50649;-62
2021/12/21 06:43:19;;;;;;;;;22.75;15.75;;;;;3.35;63.18;102199.84;5093751;27;49683;-63
2021/12/21 06:45:55;;;;;;;;;19.50;18.75;;;;;3.33;63.32;102199.72;5094083;27;49942;-69
2021/12/21 06:53:33;;;;;;;;;29.25;17.00;;;;;3.24;63.63;102196.47;5095535;27;50329;-61
2021/12/21 06:55:59;;;;;;;;;25.50;23.00;;;;;3.10;64.04;102174.72;5095620;27;49674;-62
2021/12/21 06:58:24;;;;;;;;;28.75;22.75;;;;;3.20;63.65;102199.63;5089384;27;49819;-62
2021/12/21 07:00:52;;;;;;;;;34.75;26.75;;;;;2.99;63.91;102175.63;5093589;27;50181;-76
2021/12/21 07:03:18;;;;;;;;;30.50;26.50;;;;;3.12;64.09;102195.56;5092030;27;49786;-64
2021/12/21 07:05:45;;;;;;;;;19.25;18.00;;;;;3.19;64.07;102209.91;5093962;27;50217;-63
2021/12/21 07:08:15;;;;;;;;;23.50;19.50;;;;;3.16;63.72;102200.19;5093535;27;49783;-64
2021/12/21 07:10:42;;;;;;;;;34.00;27.50;;;;;2.54;64.19;102091.03;5093333;27;50016;-62
2021/12/21 07:18:36;;;;;;;;;32.50;27.50;;;;;3.03;64.75;102187.13;5088399;27;49881;-62
2021/12/21 07:21:02;;;;;;;;;38.00;23.25;;;;;2.99;64.76;102192.84;5091737;27;50743;-61
2021/12/21 07:23:30;;;;;;;;;26.75;19.25;;;;;3.02;64.38;102203.47;5093516;27;49779;-61
2021/12/21 07:25:56;;;;;;;;;29.00;25.75;;;;;2.83;64.53;102168.38;5093340;27;49906;-64
2021/12/21 07:28:22;;;;;;;;;34.75;25.25;;;;;2.78;64.57;102180.09;5084676;27;49961;-59
2021/12/21 07:30:47;;;;;;;;;26.50;23.00;;;;;2.80;64.57;102186.31;5087773;27;50376;-60
2021/12/21 07:33:14;;;;;;;;;35.50;25.00;;;;;2.94;64.88;102212.38;5092005;27;49753;-60
2021/12/21 07:35:40;;;;;;;;;24.50;22.75;;;;;2.93;65.12;102213.16;5092899;27;50009;-59
2021/12/21 07:38:05;;;;;;;;;27.25;23.00;;;;;2.88;65.11;102218.00;5092176;27;49984;-59
2021/12/21 07:40:31;;;;;;;;;27.00;17.50;;;;;2.52;65.09;102156.53;5091045;27;50690;-59
2021/12/21 07:42:56;;;;;;;;;29.50;22.00;;;;;2.37;64.84;102138.13;5092693;27;49867;-60
2021/12/21 07:45:21;;;;;;;;;26.00;21.25;;;;;2.66;64.84;102194.75;5092445;27;50289;-59
2021/12/21 07:47:47;;;;;;;;;21.50;19.00;;;;;2.67;65.04;102206.91;5091421;27;49651;-60
2021/12/21 07:50:13;;;;;;;;;32.75;25.75;;;;;2.78;65.89;102212.91;5091984;27;50554;-60
2021/12/21 07:52:38;;;;;;;;;29.00;29.00;;;;;2.75;65.85;102223.06;5095181;27;49773;-60
2021/12/21 07:55:04;;;;;;;;;22.50;20.50;;;;;2.70;65.21;102219.19;5092610;27;49925;-59
2021/12/21 07:57:31;;;;;;;;;25.25;22.75;;;;;2.43;65.80;102173.97;5091383;27;49824;-59
2021/12/21 07:59:58;;;;;;;;;31.50;21.25;;;;;2.38;66.11;102177.88;5092539;27;50287;-60
2021/12/21 08:02:25;;;;;;;;;35.50;27.00;;;;;2.44;66.01;102200.00;5092493;27;49744;-63
2021/12/21 08:04:52;;;;;;;;;27.75;22.00;;;;;2.62;66.09;102222.94;5092661;27;49597;-59
2021/12/21 08:07:22;;;;;;;;;25.25;22.25;;;;;2.57;65.44;102205.31;5092650;27;49969;-60
2021/12/21 08:09:51;;;;;;;;;36.50;32.75;;;;;2.73;65.27;102228.13;5091973;27;49840;-60
2021/12/21 08:12:17;;;;;;;;;32.25;24.50;;;;;2.62;65.34;102194.41;5090837;27;49711;-62
2021/12/21 08:14:46;;;;;;;;;33.75;29.50;;;;;2.82;64.99;102228.84;5092545;27;49957;-60
2021/12/21 08:17:11;;;;;;;;;22.75;17.50;;;;;2.75;65.02;102223.97;5092178;27;50305;-60
2021/12/21 08:19:38;;;;;;;;;30.50;25.00;;;;;2.90;64.90;102224.22;5090665;27;49848;-60
2021/12/21 08:22:04;;;;;;;;;32.25;29.00;;;;;2.78;65.56;102220.69;5092392;27;49754;-68
2021/12/21 08:24:33;;;;;;;;;26.50;22.25;;;;;2.76;65.24;102223.16;5091084;27;49963;-68
2021/12/21 08:27:00;;;;;;;;;32.75;29.25;;;;;2.67;65.93;102201.72;5092122;27;49663;-69
2021/12/21 08:29:26;;;;;;;;;30.75;27.50;;;;;2.82;65.26;102236.63;5091911;27;50831;-68
2021/12/21 08:31:52;;;;;;;;;41.25;28.75;;;;;2.56;64.92;102189.66;5090310;27;50508;-68
2021/12/21 08:34:17;;;;;;;;;38.25;29.50;;;;;2.67;65.43;102218.97;5090746;27;49834;-67
2021/12/21 08:36:45;;;;;;;;;29.75;27.25;;;;;2.68;65.70;102224.28;5091118;27;49883;-69
2021/12/21 08:39:11;;;;;;;;;28.50;26.75;;;;;2.78;65.90;102242.34;5087699;27;52787;-68
2021/12/21 08:41:42;;;;;;;;;39.50;28.25;;;;;2.79;65.12;102240.66;5089965;27;50043;-70
2021/12/21 08:44:10;;;;;;;;;36.50;29.50;;;;;2.76;65.36;102232.63;5090236;27;50032;-67
2021/12/21 08:46:37;;;;;;;;;27.75;25.00;;;;;2.50;65.75;102189.19;5090037;27;49791;-67
2021/12/21 08:49:03;;;;;;;;;35.00;28.25;;;;;2.83;65.14;102220.25;5089756;27;49956;-69
2021/12/21 08:51:28;;;;;;;;;31.25;28.00;;;;;2.27;64.94;102123.56;5089655;27;50274;-68
2021/12/21 08:53:53;;;;;;;;;22.00;19.50;;;;;2.84;64.67;102235.03;5091832;27;49790;-69
2021/12/21 08:56:19;;;;;;;;;30.25;25.25;;;;;2.79;65.29;102228.56;5092014;27;49719;-69
2021/12/21 08:58:44;;;;;;;;;37.25;32.50;;;;;2.76;64.77;102202.44;5091282;27;50036;-67
2021/12/21 09:01:09;;;;;;;;;26.50;23.75;;;;;2.70;64.98;102190.69;5091941;27;49648;-68
2021/12/21 09:03:35;;;;;;;;;25.75;25.25;;;;;2.47;64.26;102161.34;5091733;27;49759;-68
2021/12/21 09:06:01;;;;;;;;;26.50;23.75;;;;;2.66;64.99;102191.25;5091632;27;50002;-68
2021/12/21 09:08:27;;;;;;;;;31.50;27.00;;;;;2.64;64.07;102182.47;5091471;27;50505;-68
2021/12/21 09:10:52;;;;;;;;;32.75;25.25;;;;;2.98;64.16;102237.75;5090058;27;49893;-68
2021/12/21 09:13:18;;;;;;;;;24.50;17.00;;;;;2.93;64.40;102241.69;5091364;27;49931;-67
2021/12/21 09:15:44;;;;;;;;;28.00;26.50;;;;;2.97;64.53;102243.72;5091766;27;50225;-67
2021/12/21 09:18:10;;;;;;;;;22.75;20.50;;;;;2.75;63.99;102213.59;5091403;27;50517;-67
2021/12/21 09:20:36;;;;;;;;;32.25;25.50;;;;;2.82;64.36;102204.59;5091283;27;49948;-71
2021/12/21 09:23:02;;;;;;;;;30.75;22.75;;;;;3.09;64.04;102250.75;5091425;27;49812;-68
2021/12/21 09:25:27;;;;;;;;;27.00;21.00;;;;;3.02;63.71;102243.28;5090759;27;49634;-70
2021/12/21 09:27:54;;;;;;;;;28.75;24.25;;;;;2.91;64.05;102214.75;5088344;27;51942;-69
2021/12/21 09:30:21;;;;;;;;;28.50;25.50;;;;;3.02;63.35;102225.13;5093801;27;49599;-73
2021/12/21 09:32:46;;;;;;;;;26.50;23.50;;;;;3.21;63.03;102255.03;5092382;27;50190;-67
2021/12/21 09:35:13;;;;;;;;;21.25;20.00;;;;;2.75;63.04;102177.28;5096701;27;49816;-66
2021/12/21 09:37:39;;;;;;;;;26.50;24.50;;;;;2.66;63.04;102153.25;5092510;27;49686;-66
2021/12/21 09:40:08;;;;;;;;;29.25;26.00;;;;;3.17;62.61;102252.19;5087477;27;49845;-65
2021/12/21 09:42:33;;;;;;;;;27.75;22.25;;;;;3.16;63.55;102246.91;5083848;27;49859;-67
2021/12/21 09:45:00;;;;;;;;;26.50;22.25;;;;;3.08;62.48;102248.91;5090524;27;49722;-67
2021/12/21 09:47:27;;;;;;;;;24.50;22.00;;;;;2.80;63.19;102208.75;5089844;27;49795;-68
2021/12/21 09:49:53;;;;;;;;;31.25;25.25;;;;;3.05;62.68;102253.88;5085293;27;50131;-67
2021/12/21 09:52:22;;;;;;;;;24.00;22.00;;;;;3.15;63.57;102250.28;5084761;27;49854;-68
2021/12/21 09:54:48;;;;;;;;;32.00;22.50;;;;;3.18;63.48;102245.31;5089619;27;49840;-69
2021/12/21 09:57:16;;;;;;;;;26.25;24.25;;;;;3.29;62.85;102253.91;5089630;27;49904;-67
2021/12/21 09:59:46;;;;;;;;;29.50;24.50;;;;;3.29;62.92;102244.44;5089523;27;49746;-68
2021/12/21 10:02:12;;;;;;;;;26.25;25.25;;;;;3.31;63.21;102244.53;5090511;27;49826;-67
2021/12/21 10:04:57;;;;;;;;;25.25;22.00;;;;;3.48;62.87;102246.69;5091172;27;49533;-67
2021/12/21 10:07:24;;;;;;;;;29.25;23.00;;;;;3.49;62.18;102232.91;5090871;27;49611;-69
2021/12/21 10:09:50;;;;;;;;;31.75;26.50;;;;;3.70;62.66;102254.31;5091035;27;49755;-68
2021/12/21 10:12:28;;;;;;;;;21.75;20.25;;;;;3.34;61.68;102180.78;5090869;27;49755;-65
2021/12/21 10:15:22;;;;;;;;;30.75;20.00;;;;;3.69;61.76;102242.13;5090687;27;49751;-65
2021/12/21 10:17:54;;;;;;;;;21.00;20.00;;;;;3.79;60.76;102260.19;5084464;27;50903;-65
2021/12/21 10:20:30;;;;;;;;;22.50;21.75;;;;;3.66;61.58;102248.00;5090575;27;49866;-65
2021/12/21 10:22:55;;;;;;;;;25.75;23.50;;;;;3.68;60.91;102228.25;5090735;27;49989;-65
2021/12/21 10:25:23;;;;;;;;;27.50;18.25;;;;;3.79;61.16;102252.38;5090724;27;49956;-64
2021/12/21 10:27:49;;;;;;;;;29.25;24.25;;;;;3.64;61.37;102222.72;5090230;27;49784;-67
2021/12/21 10:30:14;;;;;;;;;23.75;15.25;;;;;3.71;61.16;102257.03;5090550;27;49718;-67
2021/12/21 10:32:51;;;;;;;;;32.75;28.25;;;;;3.71;61.34;102245.75;5091206;27;49742;-67
2021/12/21 10:35:17;;;;;;;;;28.00;25.75;;;;;3.83;61.31;102236.22;5090394;27;49833;-65
2021/12/21 10:37:43;;;;;;;;;32.75;28.25;;;;;4.06;61.29;102240.47;5089958;27;50424;-67
2021/12/21 10:40:20;;;;;;;;;25.00;16.25;;;;;3.98;61.08;102226.03;5090344;27;49696;-69
2021/12/21 10:42:59;;;;;;;;;19.25;17.00;;;;;4.13;60.83;102237.47;5090430;27;49576;-69
2021/12/21 10:45:28;;;;;;;;;30.50;22.25;;;;;4.06;60.89;102236.97;5090594;27;49785;-62
2021/12/21 10:47:55;;;;;;;;;26.00;21.00;;;;;4.10;60.83;102236.38;5089962;27;50766;-64
2021/12/21 10:50:21;;;;;;;;;19.75;18.75;;;;;4.14;60.91;102228.88;5090501;27;49802;-61
2021/12/21 10:52:49;;;;;;;;;20.25;18.75;;;;;4.16;59.75;102221.22;5090288;27;49810;-64
2021/12/21 10:55:15;;;;;;;;;27.50;22.25;;;;;4.32;60.17;102230.16;5090093;27;49961;-76
2021/12/21 10:57:41;;;;;;;;;18.25;11.25;;;;;4.16;60.47;102195.22;5089238;27;50633;-62
2021/12/21 11:00:13;;;;;;;;;24.50;21.50;;;;;4.26;59.83;102206.38;5089953;27;49861;-71
2021/12/21 11:02:39;;;;;;;;;24.00;22.00;;;;;3.87;58.94;102154.22;5092474;27;49880;-66
2021/12/21 11:05:09;;;;;;;;;16.75;16.25;;;;;4.32;59.33;102237.97;5096727;27;49919;-60
2021/12/21 11:08:01;;;;;;;;;18.25;16.25;;;;;4.47;60.70;102235.53;5092951;27;50583;-61
2021/12/21 11:10:32;;;;;;;;;25.00;23.50;;;;;4.44;59.22;102232.72;5086464;27;50404;-61
2021/12/21 11:13:10;;;;;;;;;24.00;22.75;;;;;4.26;59.77;102206.38;5090833;27;50258;-59
2021/12/21 11:15:43;;;;;;;;;33.50;28.50;;;;;4.47;60.49;102237.25;5090957;27;49790;-59
2021/12/21 11:18:13;;;;;;;;;25.50;24.25;;;;;4.30;59.74;102225.66;5090619;27;50105;-59
2021/12/21 11:20:42;;;;;;;;;33.75;27.25;;;;;4.40;60.40;102235.00;5091278;27;49944;-60
2021/12/21 11:23:10;;;;;;;;;30.00;23.50;;;;;3.93;59.31;102134.75;5091612;27;49856;-60
2021/12/21 11:25:36;;;;;;;;;33.25;25.75;;;;;4.49;59.83;102225.22;5091417;27;49702;-59
2021/12/21 11:28:04;;;;;;;;;34.00;29.50;;;;;4.52;60.04;102222.84;5092674;27;50527;-59
2021/12/21 11:30:31;;;;;;;;;22.00;21.00;;;;;4.31;59.50;102189.38;5093126;27;49716;-58
2021/12/21 11:32:58;;;;;;;;;22.25;20.75;;;;;4.37;59.85;102195.81;5093306;27;49896;-59
2021/12/21 11:37:54;;;;;;;;;31.50;28.50;;;;;4.45;59.47;102205.94;5092993;27;52752;-59
2021/12/21 11:40:24;;;;;;;;;27.00;25.50;;;;;4.47;59.70;102203.44;5092680;27;49906;-59
2021/12/21 11:42:50;;;;;;;;;29.00;27.50;;;;;4.56;59.97;102202.34;5092836;27;49893;-59
2021/12/21 11:45:27;;;;;;;;;28.50;21.50;;;;;4.50;59.00;102214.94;5093256;27;49663;-59
2021/12/21 11:47:55;;;;;;;;;21.00;18.00;;;;;4.46;59.22;102206.84;5092779;27;49898;-59
2021/12/21 11:50:21;;;;;;;;;23.25;21.75;;;;;4.54;59.78;102203.97;5093154;27;50035;-59
2021/12/21 11:52:53;;;;;;;;;31.00;30.00;;;;;4.57;59.33;102203.25;5092875;27;49875;-58
2021/12/21 11:55:22;;;;;;;;;31.75;27.25;;;;;4.50;59.54;102193.22;5092892;27;49948;-59
2021/12/21 11:57:53;;;;;;;;;33.50;27.75;;;;;4.46;59.84;102165.22;5092701;27;49898;-59
2021/12/21 12:00:32;;;;;;;;;38.50;30.75;;;;;4.32;60.03;102133.97;5092632;27;49679;-59
2021/12/21 12:03:28;;;;;;;;;28.00;24.25;;;;;4.72;59.19;102192.97;5087514;27;50129;-62
2021/12/21 12:05:58;;;;;;;;;32.75;28.75;;;;;4.63;59.69;102171.53;5086053;27;50006;-59
2021/12/21 12:08:27;;;;;;;;;29.50;25.50;;;;;4.85;59.95;102186.09;5092227;27;50515;-59
2021/12/21 12:10:59;;;;;;;;;23.75;19.75;;;;;4.86;58.99;102184.41;5092589;27;49709;-59